KLM55T LFOZ-LFQQ
Flight info
| Callsign | KLM55T |
|---|---|
| Flight time | N/A |
| Altitude | 26000 |
| Route | VADOM UN874 CMB |
| Aircraft | A20N/M-SDE2E3FGHIRWXY/LB1 |
Departure
| Time | 2026-05-03 23:40 |
|---|---|
| Airport | Orléans–Saint-Denis-de-l'Hôtel Airport (LFOZ) |
Arrival
| Time | N/A |
|---|---|
| Airport | Lille Airport (LFQQ) |
| Time | Latitude | Longitude | Altitude | Speed | Heading |
|---|---|---|---|---|---|
| 2026-05-03 23:10 | 47.89672 | 2.15946 | 402 ft | 0 kts | 324° |
| 2026-05-03 23:34 | 47.89676 | 2.15942 | 399 ft | 0 kts | 324° |
| 2026-05-03 23:35 | 47.89681 | 2.15947 | 399 ft | 1 kts | 23° |
| 2026-05-03 23:35 | 47.89675 | 2.15961 | 399 ft | 5 kts | 132° |
| 2026-05-03 23:35 | 47.89637 | 2.15941 | 402 ft | 10 kts | 223° |
| 2026-05-03 23:36 | 47.89582 | 2.15835 | 402 ft | 15 kts | 234° |
| 2026-05-03 23:36 | 47.89523 | 2.15723 | 397 ft | 12 kts | 231° |
| 2026-05-03 23:36 | 47.89458 | 2.15703 | 397 ft | 10 kts | 148° |
| 2026-05-03 23:36 | 47.89431 | 2.15744 | 394 ft | 7 kts | 107° |
| 2026-05-03 23:37 | 47.89439 | 2.15787 | 395 ft | 0 kts | 55° |
| 2026-05-03 23:39 | 47.89451 | 2.15811 | 391 ft | 24 kts | 53° |
| 2026-05-03 23:39 | 47.89747 | 2.16402 | 396 ft | 116 kts | 52° |
| 2026-05-03 23:39 | 47.90357 | 2.17610 | 688 ft | 159 kts | 55° |
| 2026-05-03 23:40 | 47.91030 | 2.19037 | 1369 ft | 182 kts | 57° |
| 2026-05-03 23:40 | 47.91850 | 2.20666 | 2075 ft | 207 kts | 45° |
| 2026-05-03 23:40 | 47.93099 | 2.21882 | 2923 ft | 221 kts | 18° |
| 2026-05-03 23:40 | 47.94573 | 2.22172 | 4097 ft | 209 kts | 351° |
| 2026-05-03 23:41 | 47.95903 | 2.21506 | 5180 ft | 198 kts | 322° |
| 2026-05-03 23:41 | 47.96876 | 2.20113 | 6112 ft | 197 kts | 308° |
| 2026-05-03 23:41 | 47.97530 | 2.19085 | 6565 ft | 207 kts | 311° |
| 2026-05-03 23:41 | 47.98579 | 2.17558 | 7247 ft | 220 kts | 311° |
| 2026-05-03 23:42 | 47.99686 | 2.15989 | 8322 ft | 210 kts | 312° |
| 2026-05-03 23:42 | 48.00717 | 2.14549 | 9431 ft | 201 kts | 311° |
| 2026-05-03 23:42 | 48.01736 | 2.13106 | 10217 ft | 209 kts | 311° |
| 2026-05-03 23:42 | 48.02842 | 2.11469 | 10515 ft | 238 kts | 310° |
| 2026-05-03 23:43 | 48.03826 | 2.09954 | 10829 ft | 259 kts | 309° |
| 2026-05-03 23:43 | 48.05112 | 2.07908 | 11283 ft | 280 kts | 309° |
| 2026-05-03 23:43 | 48.06398 | 2.05791 | 12454 ft | 268 kts | 307° |
| 2026-05-03 23:43 | 48.07603 | 2.03714 | 13598 ft | 263 kts | 306° |
| 2026-05-03 23:44 | 48.08763 | 2.01567 | 14353 ft | 269 kts | 303° |
| 2026-05-03 23:44 | 48.09996 | 1.99381 | 14988 ft | 280 kts | 307° |
| 2026-05-03 23:44 | 48.11349 | 1.97218 | 15643 ft | 289 kts | 308° |
| 2026-05-03 23:44 | 48.12758 | 1.95003 | 16309 ft | 297 kts | 308° |
| 2026-05-03 23:45 | 48.14202 | 1.92737 | 16988 ft | 305 kts | 307° |
| 2026-05-03 23:45 | 48.15679 | 1.90409 | 17686 ft | 311 kts | 307° |
| 2026-05-03 23:45 | 48.17182 | 1.88032 | 18368 ft | 317 kts | 307° |
| 2026-05-03 23:45 | 48.18712 | 1.85604 | 18978 ft | 323 kts | 307° |
| 2026-05-03 23:46 | 48.20264 | 1.83134 | 19610 ft | 328 kts | 306° |
| 2026-05-03 23:46 | 48.21837 | 1.80630 | 20250 ft | 332 kts | 306° |
| 2026-05-03 23:46 | 48.23425 | 1.78099 | 20920 ft | 335 kts | 306° |
| 2026-05-03 23:46 | 48.25028 | 1.75541 | 21590 ft | 338 kts | 306° |
| 2026-05-03 23:47 | 48.26645 | 1.72957 | 22281 ft | 340 kts | 306° |
| 2026-05-03 23:47 | 48.28266 | 1.70365 | 23020 ft | 341 kts | 305° |
| 2026-05-03 23:47 | 48.29871 | 1.67798 | 23699 ft | 341 kts | 305° |
| 2026-05-03 23:47 | 48.31494 | 1.65200 | 24304 ft | 341 kts | 304° |
| 2026-05-03 23:48 | 48.33113 | 1.62604 | 24923 ft | 340 kts | 304° |
| 2026-05-03 23:48 | 48.34727 | 1.60015 | 25543 ft | 338 kts | 304° |
| 2026-05-03 23:48 | 48.36348 | 1.57401 | 25852 ft | 348 kts | 304° |
| 2026-05-03 23:48 | 48.38027 | 1.54675 | 25957 ft | 364 kts | 304° |
| 2026-05-03 23:49 | 48.39792 | 1.51810 | 25961 ft | 382 kts | 304° |
| 2026-05-03 23:49 | 48.41649 | 1.48802 | 25960 ft | 400 kts | 305° |
| 2026-05-03 23:49 | 48.43583 | 1.45677 | 25967 ft | 417 kts | 305° |
| 2026-05-03 23:49 | 48.45595 | 1.42429 | 25957 ft | 429 kts | 306° |
| 2026-05-03 23:50 | 48.47635 | 1.39145 | 25960 ft | 429 kts | 306° |
| 2026-05-03 23:50 | 48.49669 | 1.35869 | 25960 ft | 428 kts | 306° |
| 2026-05-03 23:50 | 48.51822 | 1.32863 | 25962 ft | 438 kts | 317° |
| 2026-05-03 23:50 | 48.54511 | 1.30573 | 25960 ft | 451 kts | 332° |
| 2026-05-03 23:51 | 48.57562 | 1.29260 | 25969 ft | 463 kts | 346° |
| 2026-05-03 23:51 | 48.60809 | 1.29032 | 25962 ft | 475 kts | 1° |
| 2026-05-03 23:51 | 48.64071 | 1.29915 | 25956 ft | 477 kts | 15° |
| 2026-05-03 23:51 | 48.67146 | 1.31771 | 25960 ft | 477 kts | 24° |
| 2026-05-03 23:52 | 48.70153 | 1.33901 | 25959 ft | 477 kts | 23° |
| 2026-05-03 23:52 | 48.73198 | 1.35898 | 25960 ft | 477 kts | 21° |
| 2026-05-03 23:52 | 48.76221 | 1.37670 | 25960 ft | 476 kts | 18° |
| 2026-05-03 23:52 | 48.79344 | 1.39358 | 25960 ft | 476 kts | 17° |
| 2026-05-03 23:53 | 48.82437 | 1.40956 | 25962 ft | 476 kts | 17° |
| 2026-05-03 23:53 | 48.85580 | 1.42552 | 25961 ft | 476 kts | 17° |
| 2026-05-03 23:53 | 48.88726 | 1.44144 | 25960 ft | 476 kts | 17° |
| 2026-05-03 23:53 | 48.91864 | 1.45736 | 25961 ft | 476 kts | 17° |
| 2026-05-03 23:54 | 48.94974 | 1.47452 | 25959 ft | 477 kts | 24° |
| 2026-05-03 23:54 | 48.97845 | 1.49991 | 25960 ft | 478 kts | 37° |
| 2026-05-03 23:54 | 49.00312 | 1.53369 | 25961 ft | 476 kts | 50° |
| 2026-05-03 23:54 | 49.02513 | 1.57140 | 25960 ft | 476 kts | 50° |
| 2026-05-03 23:55 | 49.04718 | 1.60914 | 25960 ft | 476 kts | 50° |
| 2026-05-03 23:55 | 49.06917 | 1.64679 | 25969 ft | 476 kts | 50° |
| 2026-05-03 23:55 | 49.09118 | 1.68454 | 25960 ft | 476 kts | 50° |
| 2026-05-03 23:55 | 49.11319 | 1.72235 | 25964 ft | 476 kts | 50° |
| 2026-05-03 23:56 | 49.13522 | 1.76026 | 25965 ft | 476 kts | 50° |
| 2026-05-03 23:56 | 49.15717 | 1.79809 | 25959 ft | 475 kts | 50° |
| 2026-05-03 23:56 | 49.17909 | 1.83592 | 25960 ft | 476 kts | 50° |
| 2026-05-03 23:56 | 49.20105 | 1.87390 | 25960 ft | 476 kts | 50° |
| 2026-05-03 23:57 | 49.22297 | 1.91185 | 25965 ft | 476 kts | 50° |
| 2026-05-03 23:57 | 49.24483 | 1.94975 | 25965 ft | 476 kts | 50° |
| 2026-05-03 23:57 | 49.26645 | 1.98729 | 25965 ft | 476 kts | 50° |
| 2026-05-03 23:57 | 49.28834 | 2.02535 | 25973 ft | 476 kts | 50° |
| 2026-05-03 23:58 | 49.31023 | 2.06346 | 25966 ft | 476 kts | 50° |
| 2026-05-03 23:58 | 49.33213 | 2.10164 | 25965 ft | 476 kts | 50° |
| 2026-05-03 23:58 | 49.33948 | 2.11448 | 25965 ft | 476 kts | 50° |